sensor_id;sensor_type;location;lat;lon;timestamp;pressure;altitude;pressure_sealevel;temperature;humidity
45078;BME280;60508;42.622;25.416;2023-01-29T00:00:07;96793.13;;;3.47;70.02
45078;BME280;60508;42.622;25.416;2023-01-29T00:02:38;96798.53;;;3.67;69.55
45078;BME280;60508;42.622;25.416;2023-01-29T00:05:05;96799.50;;;3.53;69.63
45078;BME280;60508;42.622;25.416;2023-01-29T00:07:31;96800.28;;;3.46;70.35
45078;BME280;60508;42.622;25.416;2023-01-29T00:09:58;96800.91;;;3.55;70.10
45078;BME280;60508;42.622;25.416;2023-01-29T00:12:24;96806.34;;;3.82;69.05
45078;BME280;60508;42.622;25.416;2023-01-29T00:14:50;96807.41;;;3.88;68.24
45078;BME280;60508;42.622;25.416;2023-01-29T00:17:17;96808.00;;;3.90;67.54
45078;BME280;60508;42.622;25.416;2023-01-29T00:19:43;96801.59;;;3.64;68.27
45078;BME280;60508;42.622;25.416;2023-01-29T00:22:09;96799.94;;;3.21;69.61
45078;BME280;60508;42.622;25.416;2023-01-29T00:24:35;96802.09;;;3.04;71.22
45078;BME280;60508;42.622;25.416;2023-01-29T00:27:01;96808.13;;;3.20;71.16
45078;BME280;60508;42.622;25.416;2023-01-29T00:29:27;96804.50;;;3.34;70.96
45078;BME280;60508;42.622;25.416;2023-01-29T00:31:53;96805.75;;;3.38;71.14
45078;BME280;60508;42.622;25.416;2023-01-29T00:34:19;96800.63;;;3.30;71.20
45078;BME280;60508;42.622;25.416;2023-01-29T00:36:45;96799.47;;;3.46;70.26
45078;BME280;60508;42.622;25.416;2023-01-29T00:39:12;96795.84;;;3.54;69.87
45078;BME280;60508;42.622;25.416;2023-01-29T00:41:38;96804.97;;;3.44;69.36
45078;BME280;60508;42.622;25.416;2023-01-29T00:44:23;96807.44;;;3.46;69.71
45078;BME280;60508;42.622;25.416;2023-01-29T00:47:08;96809.44;;;3.37;70.48
45078;BME280;60508;42.622;25.416;2023-01-29T00:49:54;96809.03;;;3.40;70.74
45078;BME280;60508;42.622;25.416;2023-01-29T00:52:20;96814.78;;;3.44;70.43
45078;BME280;60508;42.622;25.416;2023-01-29T00:54:50;96811.88;;;3.39;70.47
45078;BME280;60508;42.622;25.416;2023-01-29T00:57:16;96822.31;;;3.40;71.24
45078;BME280;60508;42.622;25.416;2023-01-29T00:59:42;96811.78;;;3.19;72.17
45078;BME280;60508;42.622;25.416;2023-01-29T01:02:11;96818.28;;;3.09;72.58
45078;BME280;60508;42.622;25.416;2023-01-29T01:04:55;96817.34;;;3.24;72.44
45078;BME280;60508;42.622;25.416;2023-01-29T01:07:22;96819.25;;;3.37;71.87
45078;BME280;60508;42.622;25.416;2023-01-29T01:09:49;96828.03;;;3.37;71.98
45078;BME280;60508;42.622;25.416;2023-01-29T01:12:34;96820.38;;;3.21;72.78
45078;BME280;60508;42.622;25.416;2023-01-29T01:15:00;96816.91;;;3.20;73.15
45078;BME280;60508;42.622;25.416;2023-01-29T01:17:26;96823.28;;;3.33;73.03
45078;BME280;60508;42.622;25.416;2023-01-29T01:19:53;96824.75;;;3.35;71.79
45078;BME280;60508;42.622;25.416;2023-01-29T01:22:19;96820.34;;;3.14;72.59
45078;BME280;60508;42.622;25.416;2023-01-29T01:24:45;96822.69;;;3.31;72.65
45078;BME280;60508;42.622;25.416;2023-01-29T01:27:12;96824.28;;;3.25;73.01
45078;BME280;60508;42.622;25.416;2023-01-29T01:29:38;96829.44;;;3.33;72.73
45078;BME280;60508;42.622;25.416;2023-01-29T01:32:04;96816.97;;;3.34;72.38
45078;BME280;60508;42.622;25.416;2023-01-29T01:34:31;96824.13;;;3.33;72.68
45078;BME280;60508;42.622;25.416;2023-01-29T01:36:57;96833.72;;;3.34;72.34
45078;BME280;60508;42.622;25.416;2023-01-29T01:39:23;96825.75;;;3.34;72.41
45078;BME280;60508;42.622;25.416;2023-01-29T01:41:51;96833.78;;;3.41;72.66
45078;BME280;60508;42.622;25.416;2023-01-29T01:47:28;96826.75;;;3.26;73.57
45078;BME280;60508;42.622;25.416;2023-01-29T01:50:00;96832.66;;;3.22;73.60
45078;BME280;60508;42.622;25.416;2023-01-29T01:52:30;96834.94;;;3.32;73.20
45078;BME280;60508;42.622;25.416;2023-01-29T01:54:58;96836.69;;;3.18;74.04
45078;BME280;60508;42.622;25.416;2023-01-29T01:57:26;96844.16;;;3.36;73.37
45078;BME280;60508;42.622;25.416;2023-01-29T02:00:03;96841.50;;;3.36;71.11
45078;BME280;60508;42.622;25.416;2023-01-29T02:02:41;96839.72;;;3.43;69.37
45078;BME280;60508;42.622;25.416;2023-01-29T02:05:28;96842.78;;;3.46;70.19
45078;BME280;60508;42.622;25.416;2023-01-29T02:08:17;96838.84;;;3.36;71.13
45078;BME280;60508;42.622;25.416;2023-01-29T02:11:04;96846.16;;;3.27;71.59
45078;BME280;60508;42.622;25.416;2023-01-29T02:13:31;96838.63;;;3.31;70.68
45078;BME280;60508;42.622;25.416;2023-01-29T02:15:57;96840.72;;;3.42;70.19
45078;BME280;60508;42.622;25.416;2023-01-29T02:18:23;96839.69;;;3.36;70.26
45078;BME280;60508;42.622;25.416;2023-01-29T02:26:49;96851.88;;;3.65;66.12
45078;BME280;60508;42.622;25.416;2023-01-29T02:37:53;96856.41;;;3.72;66.42
45078;BME280;60508;42.622;25.416;2023-01-29T02:46:45;96852.63;;;3.53;71.05
45078;BME280;60508;42.622;25.416;2023-01-29T02:48:49;96844.50;;;3.61;69.99
45078;BME280;60508;42.622;25.416;2023-01-29T02:51:25;96848.16;;;3.60;70.00
45078;BME280;60508;42.622;25.416;2023-01-29T02:54:07;96850.38;;;3.50;70.28
45078;BME280;60508;42.622;25.416;2023-01-29T02:56:58;96848.09;;;3.46;70.46
45078;BME280;60508;42.622;25.416;2023-01-29T02:59:41;96852.03;;;3.57;70.55
45078;BME280;60508;42.622;25.416;2023-01-29T03:02:17;96846.25;;;3.47;71.27
45078;BME280;60508;42.622;25.416;2023-01-29T03:04:48;96856.03;;;3.40;72.39
45078;BME280;60508;42.622;25.416;2023-01-29T03:07:24;96851.84;;;3.24;73.43
45078;BME280;60508;42.622;25.416;2023-01-29T03:12:56;96852.41;;;3.13;75.08
45078;BME280;60508;42.622;25.416;2023-01-29T03:15:30;96852.63;;;3.18;74.90
45078;BME280;60508;42.622;25.416;2023-01-29T03:18:24;96852.00;;;3.16;75.56
45078;BME280;60508;42.622;25.416;2023-01-29T03:21:05;96853.47;;;3.18;75.61
45078;BME280;60508;42.622;25.416;2023-01-29T03:23:54;96852.13;;;3.01;76.66
45078;BME280;60508;42.622;25.416;2023-01-29T03:26:42;96853.84;;;2.59;78.67
45078;BME280;60508;42.622;25.416;2023-01-29T03:29:34;96859.97;;;2.37;80.51
45078;BME280;60508;42.622;25.416;2023-01-29T03:32:24;96865.78;;;2.48;81.19
45078;BME280;60508;42.622;25.416;2023-01-29T03:34:57;96875.69;;;2.39;82.04
45078;BME280;60508;42.622;25.416;2023-01-29T03:37:30;96866.59;;;2.70;81.02
45078;BME280;60508;42.622;25.416;2023-01-29T03:40:03;96866.69;;;2.83;79.89
45078;BME280;60508;42.622;25.416;2023-01-29T03:48:00;96868.81;;;2.95;80.54
45078;BME280;60508;42.622;25.416;2023-01-29T03:54:04;96887.09;;;2.83;81.36
45078;BME280;60508;42.622;25.416;2023-01-29T03:56:46;96883.00;;;2.80;81.07
45078;BME280;60508;42.622;25.416;2023-01-29T03:59:44;96884.59;;;2.31;83.04
45078;BME280;60508;42.622;25.416;2023-01-29T04:02:35;96890.06;;;2.51;83.14
45078;BME280;60508;42.622;25.416;2023-01-29T04:05:16;96888.94;;;2.61;82.61
45078;BME280;60508;42.622;25.416;2023-01-29T04:08:03;96881.22;;;2.66;82.46
45078;BME280;60508;42.622;25.416;2023-01-29T04:10:32;96884.19;;;2.78;82.16
45078;BME280;60508;42.622;25.416;2023-01-29T04:13:10;96894.03;;;2.84;81.96
45078;BME280;60508;42.622;25.416;2023-01-29T04:15:46;96888.91;;;2.82;81.68
45078;BME280;60508;42.622;25.416;2023-01-29T04:18:14;96885.13;;;2.91;81.15
45078;BME280;60508;42.622;25.416;2023-01-29T04:20:59;96891.88;;;2.94;81.08
45078;BME280;60508;42.622;25.416;2023-01-29T04:23:26;96897.81;;;2.96;80.65
45078;BME280;60508;42.622;25.416;2023-01-29T04:31:10;96896.16;;;2.95;80.77
45078;BME280;60508;42.622;25.416;2023-01-29T04:33:46;96900.53;;;3.03;80.42
45078;BME280;60508;42.622;25.416;2023-01-29T04:41:44;96905.63;;;3.04;80.44
45078;BME280;60508;42.622;25.416;2023-01-29T04:44:19;96906.03;;;3.01;80.57
45078;BME280;60508;42.622;25.416;2023-01-29T04:46:51;96911.13;;;3.03;80.48
45078;BME280;60508;42.622;25.416;2023-01-29T04:54:59;96922.13;;;3.00;80.58
45078;BME280;60508;42.622;25.416;2023-01-29T05:00:03;96915.44;;;2.82;81.42
45078;BME280;60508;42.622;25.416;2023-01-29T05:02:36;96925.69;;;2.85;81.75
45078;BME280;60508;42.622;25.416;2023-01-29T05:05:04;96924.31;;;2.89;81.48
45078;BME280;60508;42.622;25.416;2023-01-29T05:07:34;96935.31;;;2.86;81.45
45078;BME280;60508;42.622;25.416;2023-01-29T05:10:04;96937.72;;;2.81;81.61
45078;BME280;60508;42.622;25.416;2023-01-29T05:12:31;96932.06;;;2.69;82.50
45078;BME280;60508;42.622;25.416;2023-01-29T05:15:01;96934.78;;;2.76;82.69
45078;BME280;60508;42.622;25.416;2023-01-29T05:17:27;96943.88;;;2.88;81.27
45078;BME280;60508;42.622;25.416;2023-01-29T05:19:55;96948.56;;;2.86;81.71
45078;BME280;60508;42.622;25.416;2023-01-29T05:22:21;96946.47;;;2.82;81.69
45078;BME280;60508;42.622;25.416;2023-01-29T05:24:50;96953.81;;;2.80;82.08
45078;BME280;60508;42.622;25.416;2023-01-29T05:27:20;96960.13;;;2.79;81.81
45078;BME280;60508;42.622;25.416;2023-01-29T05:30:06;96947.75;;;2.64;82.08
45078;BME280;60508;42.622;25.416;2023-01-29T05:32:32;96953.75;;;2.73;82.02
45078;BME280;60508;42.622;25.416;2023-01-29T05:34:58;96967.66;;;2.75;82.00
45078;BME280;60508;42.622;25.416;2023-01-29T05:37:24;96967.41;;;2.70;82.15
45078;BME280;60508;42.622;25.416;2023-01-29T05:39:49;96967.59;;;2.68;82.13
45078;BME280;60508;42.622;25.416;2023-01-29T05:42:16;96951.97;;;2.59;82.08
45078;BME280;60508;42.622;25.416;2023-01-29T05:44:42;96971.94;;;2.76;82.06
45078;BME280;60508;42.622;25.416;2023-01-29T05:47:08;96973.41;;;2.79;81.61
45078;BME280;60508;42.622;25.416;2023-01-29T05:49:34;96976.84;;;2.79;81.00
45078;BME280;60508;42.622;25.416;2023-01-29T05:52:00;96983.00;;;2.80;80.77
45078;BME280;60508;42.622;25.416;2023-01-29T05:54:26;96986.91;;;2.84;80.19
45078;BME280;60508;42.622;25.416;2023-01-29T05:56:51;96982.53;;;2.76;80.68
45078;BME280;60508;42.622;25.416;2023-01-29T05:59:18;96994.38;;;2.73;81.04
45078;BME280;60508;42.622;25.416;2023-01-29T06:01:44;96990.84;;;2.88;80.55
45078;BME280;60508;42.622;25.416;2023-01-29T06:04:10;97007.81;;;2.93;80.01
45078;BME280;60508;42.622;25.416;2023-01-29T06:06:36;96999.56;;;2.82;80.25
45078;BME280;60508;42.622;25.416;2023-01-29T06:09:02;97002.59;;;2.79;80.71
45078;BME280;60508;42.622;25.416;2023-01-29T06:11:28;97009.03;;;2.91;80.68
45078;BME280;60508;42.622;25.416;2023-01-29T06:13:54;97008.84;;;2.92;80.75
45078;BME280;60508;42.622;25.416;2023-01-29T06:16:20;97011.75;;;2.98;80.03
45078;BME280;60508;42.622;25.416;2023-01-29T06:18:46;97011.03;;;2.89;80.36
45078;BME280;60508;42.622;25.416;2023-01-29T06:21:12;97019.53;;;2.99;80.34
45078;BME280;60508;42.622;25.416;2023-01-29T06:23:38;97016.25;;;2.97;80.37
45078;BME280;60508;42.622;25.416;2023-01-29T06:26:07;97025.28;;;3.03;80.15
45078;BME280;60508;42.622;25.416;2023-01-29T06:28:33;97005.41;;;2.99;79.78
45078;BME280;60508;42.622;25.416;2023-01-29T06:31:04;97026.69;;;3.20;79.77
45078;BME280;60508;42.622;25.416;2023-01-29T06:33:30;97024.91;;;3.06;80.06
45078;BME280;60508;42.622;25.416;2023-01-29T06:35:57;97033.06;;;3.04;80.15
45078;BME280;60508;42.622;25.416;2023-01-29T06:38:24;97033.00;;;3.19;79.86
45078;BME280;60508;42.622;25.416;2023-01-29T06:40:51;97025.91;;;3.26;79.60
45078;BME280;60508;42.622;25.416;2023-01-29T06:43:18;97039.25;;;3.33;79.43
45078;BME280;60508;42.622;25.416;2023-01-29T06:45:49;97040.06;;;3.34;79.43
45078;BME280;60508;42.622;25.416;2023-01-29T06:48:16;97051.50;;;3.34;79.33
45078;BME280;60508;42.622;25.416;2023-01-29T06:50:43;97044.69;;;3.25;79.65
45078;BME280;60508;42.622;25.416;2023-01-29T06:53:09;97051.19;;;3.22;79.79
45078;BME280;60508;42.622;25.416;2023-01-29T06:55:35;97047.28;;;3.18;79.87
45078;BME280;60508;42.622;25.416;2023-01-29T06:58:11;97037.31;;;3.20;80.22
45078;BME280;60508;42.622;25.416;2023-01-29T07:00:37;97048.03;;;3.34;80.08
45078;BME280;60508;42.622;25.416;2023-01-29T07:03:03;97053.28;;;3.27;79.97
45078;BME280;60508;42.622;25.416;2023-01-29T07:05:30;97059.28;;;3.36;79.75
45078;BME280;60508;42.622;25.416;2023-01-29T07:07:56;97056.50;;;3.44;79.78
45078;BME280;60508;42.622;25.416;2023-01-29T07:10:22;97054.28;;;3.47;79.35
45078;BME280;60508;42.622;25.416;2023-01-29T07:12:50;97055.88;;;3.42;79.70
45078;BME280;60508;42.622;25.416;2023-01-29T07:15:17;97053.44;;;3.47;79.42
45078;BME280;60508;42.622;25.416;2023-01-29T07:18:01;97057.75;;;3.48;79.88
45078;BME280;60508;42.622;25.416;2023-01-29T07:20:30;97052.50;;;3.55;79.87
45078;BME280;60508;42.622;25.416;2023-01-29T07:22:56;97048.28;;;3.60;79.89
45078;BME280;60508;42.622;25.416;2023-01-29T07:25:23;97057.25;;;3.59;79.61
45078;BME280;60508;42.622;25.416;2023-01-29T07:27:49;97065.88;;;3.68;79.16
45078;BME280;60508;42.622;25.416;2023-01-29T07:30:16;97065.31;;;3.73;78.81
45078;BME280;60508;42.622;25.416;2023-01-29T07:32:42;97058.00;;;3.75;78.54
45078;BME280;60508;42.622;25.416;2023-01-29T07:35:08;97063.97;;;3.83;78.34
45078;BME280;60508;42.622;25.416;2023-01-29T07:37:34;97066.81;;;3.82;78.25
45078;BME280;60508;42.622;25.416;2023-01-29T07:40:00;97072.91;;;3.76;78.40
45078;BME280;60508;42.622;25.416;2023-01-29T07:42:26;97065.06;;;3.68;78.58
45078;BME280;60508;42.622;25.416;2023-01-29T07:44:52;97073.66;;;3.91;77.82
45078;BME280;60508;42.622;25.416;2023-01-29T07:47:18;97066.44;;;3.85;77.90
45078;BME280;60508;42.622;25.416;2023-01-29T07:49:44;97072.81;;;3.91;77.61
45078;BME280;60508;42.622;25.416;2023-01-29T07:52:10;97079.53;;;3.87;77.69
45078;BME280;60508;42.622;25.416;2023-01-29T07:54:36;97075.50;;;3.69;78.43
45078;BME280;60508;42.622;25.416;2023-01-29T07:57:02;97075.41;;;3.84;78.33
45078;BME280;60508;42.622;25.416;2023-01-29T07:59:28;97091.69;;;3.96;77.72
45078;BME280;60508;42.622;25.416;2023-01-29T08:01:54;97085.31;;;3.97;77.64
45078;BME280;60508;42.622;25.416;2023-01-29T08:04:20;97092.50;;;3.96;77.45
45078;BME280;60508;42.622;25.416;2023-01-29T08:06:46;97078.94;;;3.63;77.71
45078;BME280;60508;42.622;25.416;2023-01-29T08:09:13;97084.84;;;3.87;77.55
45078;BME280;60508;42.622;25.416;2023-01-29T08:11:39;97096.53;;;3.92;77.42
45078;BME280;60508;42.622;25.416;2023-01-29T08:14:05;97093.22;;;3.83;76.79
45078;BME280;60508;42.622;25.416;2023-01-29T08:16:34;97089.28;;;3.79;76.70
45078;BME280;60508;42.622;25.416;2023-01-29T08:19:01;97092.72;;;4.01;77.02
45078;BME280;60508;42.622;25.416;2023-01-29T08:21:27;97095.66;;;4.13;76.35
45078;BME280;60508;42.622;25.416;2023-01-29T08:23:53;97096.97;;;4.24;76.27
45078;BME280;60508;42.622;25.416;2023-01-29T08:26:19;97096.00;;;4.32;76.37
45078;BME280;60508;42.622;25.416;2023-01-29T08:28:45;97090.75;;;4.45;75.59
45078;BME280;60508;42.622;25.416;2023-01-29T08:31:16;97085.94;;;4.27;75.86
45078;BME280;60508;42.622;25.416;2023-01-29T08:33:42;97105.06;;;4.44;75.57
45078;BME280;60508;42.622;25.416;2023-01-29T08:36:09;97115.22;;;4.69;73.33
45078;BME280;60508;42.622;25.416;2023-01-29T08:38:35;97106.69;;;4.80;72.19
45078;BME280;60508;42.622;25.416;2023-01-29T08:41:01;97109.91;;;4.69;73.00
45078;BME280;60508;42.622;25.416;2023-01-29T08:43:27;97112.34;;;4.64;73.51
45078;BME280;60508;42.622;25.416;2023-01-29T08:45:53;97104.94;;;4.59;73.49
45078;BME280;60508;42.622;25.416;2023-01-29T08:48:19;97106.97;;;3.94;73.69
45078;BME280;60508;42.622;25.416;2023-01-29T08:50:45;97103.69;;;3.42;75.74
45078;BME280;60508;42.622;25.416;2023-01-29T08:53:11;97099.09;;;3.79;76.92
45078;BME280;60508;42.622;25.416;2023-01-29T08:55:38;97117.47;;;4.30;75.41
45078;BME280;60508;42.622;25.416;2023-01-29T08:58:07;97110.59;;;4.43;74.36
45078;BME280;60508;42.622;25.416;2023-01-29T09:00:33;97114.75;;;4.58;73.85
45078;BME280;60508;42.622;25.416;2023-01-29T09:03:00;97111.63;;;4.48;73.71
45078;BME280;60508;42.622;25.416;2023-01-29T09:05:27;97110.50;;;4.29;73.90
45078;BME280;60508;42.622;25.416;2023-01-29T09:07:55;97121.72;;;4.60;73.05
45078;BME280;60508;42.622;25.416;2023-01-29T09:10:22;97114.41;;;4.68;72.48
45078;BME280;60508;42.622;25.416;2023-01-29T09:12:48;97117.28;;;4.73;72.75
45078;BME280;60508;42.622;25.416;2023-01-29T09:15:15;97121.97;;;4.71;73.33
45078;BME280;60508;42.622;25.416;2023-01-29T09:17:41;97115.28;;;4.89;72.22
45078;BME280;60508;42.622;25.416;2023-01-29T09:20:09;97120.56;;;4.75;72.93
45078;BME280;60508;42.622;25.416;2023-01-29T09:22:35;97115.84;;;4.36;73.77
45078;BME280;60508;42.622;25.416;2023-01-29T09:25:02;97113.66;;;4.11;74.49
45078;BME280;60508;42.622;25.416;2023-01-29T09:27:28;97108.13;;;4.13;75.35
45078;BME280;60508;42.622;25.416;2023-01-29T09:29:54;97102.06;;;4.19;74.98
45078;BME280;60508;42.622;25.416;2023-01-29T09:32:20;97109.97;;;4.47;73.02
45078;BME280;60508;42.622;25.416;2023-01-29T09:34:47;97106.59;;;4.25;75.33
45078;BME280;60508;42.622;25.416;2023-01-29T09:37:13;97102.66;;;4.21;76.41
45078;BME280;60508;42.622;25.416;2023-01-29T09:39:39;97100.94;;;3.78;78.63
45078;BME280;60508;42.622;25.416;2023-01-29T09:45:09;97092.88;;;4.22;77.77
45078;BME280;60508;42.622;25.416;2023-01-29T09:47:37;97091.66;;;4.66;76.73
45078;BME280;60508;42.622;25.416;2023-01-29T09:50:16;97097.66;;;4.81;75.12
45078;BME280;60508;42.622;25.416;2023-01-29T09:52:49;97085.41;;;4.45;74.80
45078;BME280;60508;42.622;25.416;2023-01-29T09:55:25;97086.78;;;4.76;74.76
45078;BME280;60508;42.622;25.416;2023-01-29T09:57:53;97081.47;;;4.76;74.57
45078;BME280;60508;42.622;25.416;2023-01-29T10:00:28;97071.88;;;4.88;74.60
45078;BME280;60508;42.622;25.416;2023-01-29T10:14:32;97074.94;;;4.85;74.42
45078;BME280;60508;42.622;25.416;2023-01-29T10:20:01;97078.09;;;5.09;71.35
45078;BME280;60508;42.622;25.416;2023-01-29T10:25:22;97053.47;;;5.00;72.11
45078;BME280;60508;42.622;25.416;2023-01-29T10:27:57;97057.22;;;5.33;69.96
45078;BME280;60508;42.622;25.416;2023-01-29T10:30:37;97054.53;;;5.19;69.76
45078;BME280;60508;42.622;25.416;2023-01-29T10:33:05;97058.25;;;5.25;68.40
45078;BME280;60508;42.622;25.416;2023-01-29T10:35:42;97062.34;;;5.21;70.17
45078;BME280;60508;42.622;25.416;2023-01-29T10:38:39;97053.94;;;5.17;71.35
45078;BME280;60508;42.622;25.416;2023-01-29T10:41:14;97058.00;;;5.13;71.86
45078;BME280;60508;42.622;25.416;2023-01-29T10:46:55;97045.97;;;5.30;71.37
45078;BME280;60508;42.622;25.416;2023-01-29T10:55:32;97044.09;;;5.18;70.89
45078;BME280;60508;42.622;25.416;2023-01-29T11:00:35;97032.41;;;5.12;70.81
45078;BME280;60508;42.622;25.416;2023-01-29T11:05:44;97023.78;;;4.97;72.02
45078;BME280;60508;42.622;25.416;2023-01-29T11:08:15;97027.03;;;4.92;71.14
45078;BME280;60508;42.622;25.416;2023-01-29T11:11:00;97021.72;;;5.05;70.81
45078;BME280;60508;42.622;25.416;2023-01-29T11:13:37;97024.63;;;5.17;70.51
45078;BME280;60508;42.622;25.416;2023-01-29T11:16:07;97011.53;;;5.16;70.79
45078;BME280;60508;42.622;25.416;2023-01-29T11:18:56;97020.31;;;5.23;70.30
45078;BME280;60508;42.622;25.416;2023-01-29T11:21:24;97017.25;;;5.33;70.38
45078;BME280;60508;42.622;25.416;2023-01-29T11:24:05;97023.44;;;5.46;69.86
45078;BME280;60508;42.622;25.416;2023-01-29T11:26:35;97013.97;;;5.51;67.29
45078;BME280;60508;42.622;25.416;2023-01-29T11:29:02;97016.66;;;5.44;63.71
45078;BME280;60508;42.622;25.416;2023-01-29T11:31:35;97013.19;;;5.43;65.48
45078;BME280;60508;42.622;25.416;2023-01-29T11:34:15;97006.19;;;5.42;63.44
45078;BME280;60508;42.622;25.416;2023-01-29T11:36:43;97007.75;;;4.77;69.43
45078;BME280;60508;42.622;25.416;2023-01-29T11:39:16;97005.13;;;4.90;69.75
45078;BME280;60508;42.622;25.416;2023-01-29T11:44:20;96996.72;;;4.93;67.19
45078;BME280;60508;42.622;25.416;2023-01-29T11:46:46;96993.28;;;4.99;67.79
45078;BME280;60508;42.622;25.416;2023-01-29T11:49:43;96998.78;;;4.98;68.85
45078;BME280;60508;42.622;25.416;2023-01-29T11:52:10;96999.41;;;4.93;67.65
45078;BME280;60508;42.622;25.416;2023-01-29T11:54:44;96996.75;;;5.06;66.44
45078;BME280;60508;42.622;25.416;2023-01-29T11:57:23;96995.94;;;5.19;63.50
45078;BME280;60508;42.622;25.416;2023-01-29T11:59:52;96995.34;;;5.37;66.06
45078;BME280;60508;42.622;25.416;2023-01-29T12:02:37;96990.59;;;5.39;65.69
45078;BME280;60508;42.622;25.416;2023-01-29T12:05:17;96985.28;;;4.99;64.45
45078;BME280;60508;42.622;25.416;2023-01-29T12:07:49;96982.81;;;5.11;68.49
45078;BME280;60508;42.622;25.416;2023-01-29T12:15:36;96990.44;;;5.47;69.84
45078;BME280;60508;42.622;25.416;2023-01-29T12:20:42;96994.94;;;5.34;66.64
45078;BME280;60508;42.622;25.416;2023-01-29T12:23:13;96990.41;;;5.41;67.55
45078;BME280;60508;42.622;25.416;2023-01-29T12:25:55;96987.94;;;5.39;67.88
45078;BME280;60508;42.622;25.416;2023-01-29T12:31:21;96996.16;;;5.58;68.46
45078;BME280;60508;42.622;25.416;2023-01-29T12:33:51;96989.38;;;5.62;63.62
45078;BME280;60508;42.622;25.416;2023-01-29T12:36:26;96986.72;;;5.48;60.75
45078;BME280;60508;42.622;25.416;2023-01-29T12:38:54;96990.41;;;5.61;60.52
45078;BME280;60508;42.622;25.416;2023-01-29T12:41:40;96998.13;;;6.16;59.02
45078;BME280;60508;42.622;25.416;2023-01-29T12:44:46;96992.22;;;6.59;56.81
45078;BME280;60508;42.622;25.416;2023-01-29T12:47:20;96990.88;;;7.13;55.46
45078;BME280;60508;42.622;25.416;2023-01-29T12:49:51;96992.09;;;7.18;53.91
45078;BME280;60508;42.622;25.416;2023-01-29T12:52:35;96991.19;;;6.99;54.41
45078;BME280;60508;42.622;25.416;2023-01-29T13:00:05;96989.44;;;6.40;55.96
45078;BME280;60508;42.622;25.416;2023-01-29T13:02:37;96997.88;;;6.31;56.10
45078;BME280;60508;42.622;25.416;2023-01-29T13:05:16;96994.22;;;6.25;56.61
45078;BME280;60508;42.622;25.416;2023-01-29T13:07:47;96992.19;;;6.20;56.56
45078;BME280;60508;42.622;25.416;2023-01-29T13:10:23;96989.16;;;5.77;57.82
45078;BME280;60508;42.622;25.416;2023-01-29T13:12:57;96984.69;;;5.64;58.99
45078;BME280;60508;42.622;25.416;2023-01-29T13:15:33;96991.22;;;5.55;58.89
45078;BME280;60508;42.622;25.416;2023-01-29T13:20:59;96991.25;;;5.41;59.65
45078;BME280;60508;42.622;25.416;2023-01-29T13:24:17;96987.53;;;5.42;59.30
45078;BME280;60508;42.622;25.416;2023-01-29T13:26:19;96992.25;;;5.40;59.73
45078;BME280;60508;42.622;25.416;2023-01-29T13:28:46;96991.41;;;5.66;58.00
45078;BME280;60508;42.622;25.416;2023-01-29T13:31:31;96984.25;;;5.74;57.67
45078;BME280;60508;42.622;25.416;2023-01-29T13:34:23;96991.84;;;5.63;57.67
45078;BME280;60508;42.622;25.416;2023-01-29T13:36:51;96988.16;;;5.58;58.58
45078;BME280;60508;42.622;25.416;2023-01-29T13:39:24;97000.25;;;5.47;58.64
45078;BME280;60508;42.622;25.416;2023-01-29T13:41:52;96998.63;;;5.46;58.98
45078;BME280;60508;42.622;25.416;2023-01-29T13:44:30;96995.94;;;5.39;59.19
45078;BME280;60508;42.622;25.416;2023-01-29T13:47:00;96995.94;;;5.39;58.70
45078;BME280;60508;42.622;25.416;2023-01-29T13:49:30;96997.16;;;5.17;59.61
45078;BME280;60508;42.622;25.416;2023-01-29T13:51:58;96985.69;;;5.16;59.79
45078;BME280;60508;42.622;25.416;2023-01-29T13:54:53;96989.81;;;5.12;59.69
45078;BME280;60508;42.622;25.416;2023-01-29T14:08:03;97012.53;;;5.01;60.11
45078;BME280;60508;42.622;25.416;2023-01-29T14:10:31;97008.81;;;4.96;61.10
45078;BME280;60508;42.622;25.416;2023-01-29T14:18:54;96994.41;;;4.63;61.04
45078;BME280;60508;42.622;25.416;2023-01-29T14:21:25;96993.16;;;4.52;61.50
45078;BME280;60508;42.622;25.416;2023-01-29T14:26:43;96993.75;;;4.48;61.28
45078;BME280;60508;42.622;25.416;2023-01-29T14:34:43;97001.72;;;4.41;62.26
45078;BME280;60508;42.622;25.416;2023-01-29T14:42:46;97004.75;;;4.31;62.82
45078;BME280;60508;42.622;25.416;2023-01-29T14:52:43;97010.28;;;4.36;62.86
45078;BME280;60508;42.622;25.416;2023-01-29T14:55:34;97012.53;;;4.39;63.03
45078;BME280;60508;42.622;25.416;2023-01-29T14:58:03;97012.72;;;4.31;62.86
45078;BME280;60508;42.622;25.416;2023-01-29T15:00:34;97016.13;;;4.18;63.17
45078;BME280;60508;42.622;25.416;2023-01-29T15:03:09;97015.28;;;4.18;63.42
45078;BME280;60508;42.622;25.416;2023-01-29T15:05:37;97013.44;;;4.12;63.71
45078;BME280;60508;42.622;25.416;2023-01-29T15:08:14;97017.09;;;4.11;63.64
45078;BME280;60508;42.622;25.416;2023-01-29T15:10:47;97009.69;;;3.99;64.40
45078;BME280;60508;42.622;25.416;2023-01-29T15:13:43;97013.34;;;3.98;64.08
45078;BME280;60508;42.622;25.416;2023-01-29T15:16:23;97009.44;;;3.94;64.54
45078;BME280;60508;42.622;25.416;2023-01-29T15:18:54;97013.72;;;3.95;64.78
45078;BME280;60508;42.622;25.416;2023-01-29T15:21:21;97015.75;;;3.87;65.53
45078;BME280;60508;42.622;25.416;2023-01-29T15:24:02;97014.50;;;3.89;65.16
45078;BME280;60508;42.622;25.416;2023-01-29T15:26:29;97019.78;;;3.82;66.16
45078;BME280;60508;42.622;25.416;2023-01-29T15:28:59;97032.53;;;3.94;64.72
45078;BME280;60508;42.622;25.416;2023-01-29T15:31:26;97024.56;;;3.94;64.31
45078;BME280;60508;42.622;25.416;2023-01-29T15:33:55;97029.66;;;3.89;64.38
45078;BME280;60508;42.622;25.416;2023-01-29T15:36:27;97027.06;;;3.67;64.73
45078;BME280;60508;42.622;25.416;2023-01-29T15:41:37;97024.72;;;3.86;64.63
45078;BME280;60508;42.622;25.416;2023-01-29T15:44:13;97028.59;;;3.83;64.46
45078;BME280;60508;42.622;25.416;2023-01-29T15:46:42;97018.69;;;3.70;64.79
45078;BME280;60508;42.622;25.416;2023-01-29T15:49:16;97023.69;;;3.58;65.07
45078;BME280;60508;42.622;25.416;2023-01-29T15:51:45;97023.56;;;3.66;65.37